createdAt,value
2024-04-06T00:00:17.436Z,100100.20
2024-04-06T00:03:05.438Z,100123.20
2024-04-06T00:05:32.979Z,100127.60
2024-04-06T00:08:09.622Z,100130.00
2024-04-06T00:10:41.328Z,100124.60
2024-04-06T00:13:08.801Z,100126.80
2024-04-06T00:15:36.334Z,100134.80
2024-04-06T00:18:04.271Z,100127.80
2024-04-06T00:20:32.184Z,100135.00
2024-04-06T00:22:59.753Z,100132.80
2024-04-06T00:25:27.367Z,100122.60
2024-04-06T00:27:55.139Z,100118.80
2024-04-06T00:30:22.610Z,100131.40
2024-04-06T00:32:50.084Z,100132.20
2024-04-06T00:35:17.762Z,100145.00
2024-04-06T00:37:45.819Z,100138.20
2024-04-06T00:40:13.412Z,100140.60
2024-04-06T00:42:41.444Z,100141.00
2024-04-06T00:45:09.682Z,100140.20
2024-04-06T00:47:37.273Z,100141.80
2024-04-06T00:50:09.870Z,100146.80
2024-04-06T00:52:38.936Z,100140.80
2024-04-06T00:55:07.160Z,100145.80
2024-04-06T00:57:35.637Z,100152.80
2024-04-06T01:00:03.920Z,100155.00
2024-04-06T01:02:31.627Z,100151.60
2024-04-06T01:04:59.259Z,100146.20
2024-04-06T01:07:28.861Z,100144.00
2024-04-06T01:09:56.505Z,100148.00
2024-04-06T01:12:24.005Z,100147.40
2024-04-06T01:14:51.525Z,100148.20
2024-04-06T01:17:19.011Z,100151.60
2024-04-06T01:19:48.136Z,100154.20
2024-04-06T01:22:15.694Z,100165.60
2024-04-06T01:24:44.851Z,100172.00
2024-04-06T01:27:12.444Z,100169.20
2024-04-06T01:29:40.334Z,100171.00
2024-04-06T01:32:07.927Z,100170.00
2024-04-06T01:34:37.676Z,100161.40
2024-04-06T01:37:08.134Z,100154.40
2024-04-06T01:39:36.234Z,100147.60
2024-04-06T01:42:04.174Z,100138.80
2024-04-06T01:44:31.751Z,100130.20
2024-04-06T01:46:59.254Z,100123.80
2024-04-06T01:49:27.499Z,100125.60
2024-04-06T01:51:55.030Z,100128.00
2024-04-06T01:54:22.497Z,100129.20
2024-04-06T01:56:51.414Z,100135.40
2024-04-06T01:59:19.457Z,100129.20
2024-04-06T02:01:46.916Z,100116.60
2024-04-06T02:04:14.431Z,100110.80
2024-04-06T02:06:41.943Z,100112.20
2024-04-06T02:09:09.746Z,100109.80
2024-04-06T02:11:37.215Z,100104.80
2024-04-06T02:14:04.696Z,100103.00
2024-04-06T02:16:32.178Z,100112.40
2024-04-06T02:18:59.669Z,100104.20
2024-04-06T02:21:27.299Z,100101.00
2024-04-06T02:23:55.108Z,100112.20
2024-04-06T02:26:22.623Z,100116.20
2024-04-06T02:28:50.153Z,100122.00
2024-04-06T02:31:18.139Z,100119.80
2024-04-06T02:33:45.617Z,100118.60
2024-04-06T02:36:13.100Z,100117.00
2024-04-06T02:38:40.671Z,100118.00
2024-04-06T02:41:08.180Z,100120.80
2024-04-06T02:43:35.674Z,100117.20
2024-04-06T02:46:03.805Z,100119.80
2024-04-06T02:48:32.721Z,100120.20
2024-04-06T02:51:00.337Z,100124.20
2024-04-06T02:53:27.892Z,100131.60
2024-04-06T02:55:57.177Z,100125.20
2024-04-06T02:58:24.708Z,100124.80
2024-04-06T03:00:52.441Z,100123.20
2024-04-06T03:03:20.108Z,100127.80
2024-04-06T03:05:48.327Z,100133.60
2024-04-06T03:08:15.802Z,100139.20
2024-04-06T03:10:43.374Z,100140.00
2024-04-06T03:13:10.887Z,100142.00
2024-04-06T03:15:38.623Z,100141.20
2024-04-06T03:18:06.121Z,100143.00
2024-04-06T03:20:33.781Z,100141.80
2024-04-06T03:23:03.780Z,100146.40
2024-04-06T03:25:33.907Z,100142.20
2024-04-06T03:28:01.600Z,100148.20
2024-04-06T03:30:29.402Z,100147.60
2024-04-06T03:32:57.018Z,100151.20
2024-04-06T03:35:25.132Z,100155.00
2024-04-06T03:37:52.683Z,100151.20
2024-04-06T03:40:20.524Z,100158.20
2024-04-06T03:42:58.732Z,100162.60
2024-04-06T03:45:27.768Z,100168.00
2024-04-06T03:47:55.526Z,100162.40
2024-04-06T03:50:23.375Z,100172.00
2024-04-06T03:52:51.213Z,100174.00
2024-04-06T03:55:18.863Z,100173.40
2024-04-06T03:57:46.553Z,100172.20
2024-04-06T04:00:16.817Z,100176.00
2024-04-06T04:02:44.315Z,100185.00
2024-04-06T04:05:11.951Z,100188.40
2024-04-06T04:07:39.448Z,100191.60
2024-04-06T04:10:08.043Z,100190.00
2024-04-06T04:12:35.585Z,100196.20
2024-04-06T04:15:11.498Z,100187.20
2024-04-06T04:17:39.892Z,100189.80
2024-04-06T04:20:09.611Z,100196.00
2024-04-06T04:22:37.321Z,100208.00
2024-04-06T04:25:05.303Z,100210.60
2024-04-06T04:27:35.592Z,100218.80
2024-04-06T04:30:03.491Z,100226.20
2024-04-06T04:32:31.028Z,100233.20
2024-04-06T04:34:58.635Z,100229.60
2024-04-06T04:37:26.232Z,100235.00
2024-04-06T04:39:53.750Z,100238.40
2024-04-06T04:42:21.280Z,100249.20
2024-04-06T04:47:17.259Z,100254.60
2024-04-06T04:49:44.945Z,100261.60
2024-04-06T04:52:12.403Z,100267.20
2024-04-06T04:54:41.052Z,100266.20
2024-04-06T04:57:08.581Z,100266.40
2024-04-06T04:59:36.066Z,100272.00
2024-04-06T05:02:03.732Z,100276.00
2024-04-06T05:04:31.231Z,100276.00
2024-04-06T05:06:58.740Z,100287.20
2024-04-06T05:09:26.566Z,100288.80
2024-04-06T05:11:54.174Z,100292.40
2024-04-06T05:14:21.784Z,100293.60
2024-04-06T05:16:49.753Z,100297.80
2024-04-06T05:19:17.329Z,100303.80
2024-04-06T05:21:44.954Z,100306.60
2024-04-06T05:24:13.622Z,100309.20
2024-04-06T05:26:45.926Z,100313.20
2024-04-06T05:29:13.427Z,100318.80
2024-04-06T05:31:40.978Z,100320.80
2024-04-06T05:34:08.510Z,100325.80
2024-04-06T05:36:36.080Z,100323.20
2024-04-06T05:39:05.295Z,100332.00
2024-04-06T05:41:33.034Z,100329.20
2024-04-06T05:44:03.308Z,100321.00
2024-04-06T05:46:33.287Z,100329.40
2024-04-06T05:49:01.520Z,100338.00
2024-04-06T05:51:30.365Z,100341.00
2024-04-06T05:53:57.833Z,100343.40
2024-04-06T05:56:25.483Z,100343.40
2024-04-06T05:58:53.313Z,100355.80
2024-04-06T06:01:20.878Z,100355.40
2024-04-06T06:03:48.792Z,100356.20
2024-04-06T06:06:16.270Z,100360.80
2024-04-06T06:08:43.793Z,100357.40
2024-04-06T06:11:11.556Z,100363.60
2024-04-06T06:13:39.103Z,100368.80
2024-04-06T06:16:07.063Z,100365.60
2024-04-06T06:18:34.638Z,100364.20
2024-04-06T06:21:08.252Z,100368.20
2024-04-06T06:23:36.172Z,100369.40
2024-04-06T06:26:03.893Z,100369.40
2024-04-06T06:28:31.957Z,100379.00
2024-04-06T06:31:01.136Z,100380.20
2024-04-06T06:33:28.652Z,100390.40
2024-04-06T06:38:27.951Z,100384.00
2024-04-06T06:40:55.513Z,100392.00
2024-04-06T06:43:23.089Z,100397.40
2024-04-06T06:45:50.612Z,100395.40
2024-04-06T06:48:18.089Z,100393.20
2024-04-06T06:50:45.812Z,100389.60
2024-04-06T06:53:13.310Z,100387.60
2024-04-06T06:55:41.169Z,100397.20
2024-04-06T06:58:08.675Z,100398.80
2024-04-06T07:00:37.206Z,100399.60
2024-04-06T07:03:05.294Z,100395.60
2024-04-06T07:05:32.820Z,100400.00
2024-04-06T07:08:00.599Z,100393.40
2024-04-06T07:10:28.094Z,100404.20
2024-04-06T07:12:55.613Z,100403.20
2024-04-06T07:15:23.255Z,100406.40
2024-04-06T07:17:51.299Z,100411.20
2024-04-06T07:20:18.940Z,100420.00
2024-04-06T07:22:46.444Z,100419.20
2024-04-06T07:25:14.133Z,100422.80
2024-04-06T07:27:41.774Z,100420.60
2024-04-06T07:30:10.038Z,100425.60
2024-04-06T07:32:38.417Z,100425.00
2024-04-06T07:35:10.805Z,100438.80
2024-04-06T07:37:38.472Z,100442.40
2024-04-06T07:40:07.025Z,100439.80
2024-04-06T07:42:34.692Z,100444.40
2024-04-06T07:45:02.236Z,100441.80
2024-04-06T07:47:29.856Z,100441.80
2024-04-06T07:49:57.514Z,100443.60
2024-04-06T07:52:25.131Z,100439.60
2024-04-06T07:54:52.880Z,100435.00
2024-04-06T07:57:20.368Z,100432.20
2024-04-06T07:59:48.711Z,100435.40
2024-04-06T08:02:17.354Z,100430.80
2024-04-06T08:04:45.941Z,100438.00
2024-04-06T08:07:13.687Z,100444.20
2024-04-06T08:09:41.217Z,100450.80
2024-04-06T08:12:08.908Z,100452.00
2024-04-06T08:14:36.451Z,100449.20
2024-04-06T08:17:04.098Z,100449.20
2024-04-06T08:19:32.333Z,100447.00
2024-04-06T08:22:01.250Z,100452.60
2024-04-06T08:24:28.859Z,100451.60
2024-04-06T08:26:56.913Z,100455.00
2024-04-06T08:29:24.495Z,100451.80
2024-04-06T08:31:52.218Z,100456.00
2024-04-06T08:34:19.881Z,100461.40
2024-04-06T08:36:47.481Z,100458.00
2024-04-06T08:39:14.983Z,100449.20
2024-04-06T08:41:44.713Z,100452.00
2024-04-06T08:44:14.276Z,100458.80
2024-04-06T08:46:42.346Z,100461.80
2024-04-06T08:49:13.400Z,100467.60
2024-04-06T08:51:42.080Z,100462.60
2024-04-06T08:54:09.948Z,100470.80
2024-04-06T08:56:37.546Z,100469.60
2024-04-06T08:59:05.243Z,100471.00
2024-04-06T09:01:32.719Z,100467.20
2024-04-06T09:04:00.183Z,100469.60
2024-04-06T09:06:28.080Z,100470.80
2024-04-06T09:08:55.693Z,100468.60
2024-04-06T09:11:24.580Z,100466.20
2024-04-06T09:13:52.069Z,100468.60
2024-04-06T09:16:21.312Z,100467.20
2024-04-06T09:18:48.804Z,100464.60
2024-04-06T09:21:18.243Z,100470.80
2024-04-06T09:23:50.367Z,100465.20
2024-04-06T09:26:25.903Z,100459.40
2024-04-06T09:28:55.315Z,100460.20
2024-04-06T09:31:24.443Z,100464.20
2024-04-06T09:33:55.338Z,100472.20
2024-04-06T09:36:23.410Z,100463.60
2024-04-06T09:38:53.683Z,100469.60
2024-04-06T09:41:22.838Z,100467.40
2024-04-06T09:43:53.559Z,100465.00
2024-04-06T09:46:21.913Z,100468.40
2024-04-06T09:48:49.388Z,100475.60
2024-04-06T09:51:17.814Z,100471.00
2024-04-06T09:53:45.568Z,100465.60
2024-04-06T09:56:13.143Z,100474.40
2024-04-06T09:58:48.475Z,100473.00
2024-04-06T10:01:18.494Z,100476.60
2024-04-06T10:03:48.926Z,100474.80
2024-04-06T10:06:22.740Z,100475.40
2024-04-06T10:08:58.255Z,100476.20
2024-04-06T10:11:28.792Z,100479.20
2024-04-06T10:14:04.315Z,100484.40
2024-04-06T10:16:36.992Z,100483.40
2024-04-06T10:19:05.089Z,100485.80
2024-04-06T10:21:35.994Z,100484.00
2024-04-06T10:24:14.155Z,100482.00
2024-04-06T10:26:50.250Z,100481.80
2024-04-06T10:29:18.176Z,100480.60
2024-04-06T10:31:47.688Z,100480.20
2024-04-06T10:34:15.672Z,100480.40
2024-04-06T10:36:44.206Z,100485.00
2024-04-06T10:39:12.552Z,100486.80
2024-04-06T10:41:43.607Z,100482.40
2024-04-06T10:44:12.214Z,100480.80
2024-04-06T10:46:40.327Z,100483.00
2024-04-06T10:49:14.216Z,100487.80
2024-04-06T10:51:42.464Z,100481.60
2024-04-06T10:54:10.240Z,100488.80
2024-04-06T10:56:38.136Z,100488.60
2024-04-06T10:59:06.486Z,100489.80
2024-04-06T11:01:35.998Z,100489.80
2024-04-06T11:04:06.120Z,100494.60
2024-04-06T11:06:36.355Z,100491.60
2024-04-06T11:09:11.175Z,100487.40
2024-04-06T11:11:39.638Z,100497.60
2024-04-06T11:14:09.974Z,100499.40
2024-04-06T11:16:43.150Z,100495.20
2024-04-06T11:19:14.188Z,100495.20
2024-04-06T11:21:41.720Z,100499.80
2024-04-06T11:24:09.943Z,100501.60
2024-04-06T11:26:37.686Z,100496.60
2024-04-06T11:29:05.307Z,100502.00
2024-04-06T11:31:33.954Z,100495.20
2024-04-06T11:34:01.427Z,100500.80
2024-04-06T11:36:32.041Z,100510.20
2024-04-06T11:39:00.189Z,100506.20
2024-04-06T11:41:28.136Z,100508.20
2024-04-06T11:43:55.648Z,100504.80
2024-04-06T11:46:23.231Z,100505.00
2024-04-06T11:48:50.793Z,100508.00
2024-04-06T11:51:19.277Z,100516.80
2024-04-06T11:53:49.431Z,100516.40
2024-04-06T11:56:18.874Z,100512.80
2024-04-06T11:58:46.605Z,100513.60
2024-04-06T12:01:14.281Z,100509.60
2024-04-06T12:03:41.860Z,100505.60
2024-04-06T12:06:12.475Z,100499.00
2024-04-06T12:08:41.219Z,100511.20
2024-04-06T12:11:08.637Z,100502.20
2024-04-06T12:13:36.094Z,100501.60
2024-04-06T12:16:04.295Z,100504.60
2024-04-06T12:18:31.793Z,100501.40
2024-04-06T12:20:59.456Z,100505.80
2024-04-06T12:23:28.700Z,100503.80
2024-04-06T12:25:57.191Z,100517.40
2024-04-06T12:28:25.279Z,100521.20
2024-04-06T12:30:52.806Z,100521.60
2024-04-06T12:33:20.324Z,100522.00
2024-04-06T12:35:49.591Z,100520.80
2024-04-06T12:38:17.147Z,100523.20
2024-04-06T12:40:45.163Z,100525.00
2024-04-06T12:43:12.890Z,100523.60
2024-04-06T12:45:40.456Z,100525.20
2024-04-06T12:48:08.270Z,100529.00
2024-04-06T12:50:35.847Z,100537.00
2024-04-06T12:53:03.883Z,100531.40
2024-04-06T12:55:31.522Z,100534.60
2024-04-06T12:57:59.040Z,100534.00
2024-04-06T13:00:26.654Z,100534.60
2024-04-06T13:02:54.234Z,100537.00
2024-04-06T13:05:22.056Z,100538.20
2024-04-06T13:07:51.336Z,100536.80
2024-04-06T13:10:19.191Z,100544.00
2024-04-06T13:12:47.943Z,100540.80
2024-04-06T13:15:15.789Z,100543.80
2024-04-06T13:17:45.212Z,100546.80
2024-04-06T13:20:16.406Z,100547.00
2024-04-06T13:22:49.420Z,100543.60
2024-04-06T13:25:17.403Z,100546.80
2024-04-06T13:27:44.912Z,100551.00
2024-04-06T13:30:12.943Z,100553.80
2024-04-06T13:32:40.797Z,100561.40
2024-04-06T13:35:08.335Z,100552.20
2024-04-06T13:37:36.232Z,100552.00
2024-04-06T13:40:12.046Z,100555.20
2024-04-06T13:42:40.419Z,100559.20
2024-04-06T13:45:16.069Z,100552.60
2024-04-06T13:47:48.493Z,100554.60
2024-04-06T13:50:16.921Z,100555.80
2024-04-06T13:52:44.485Z,100561.20
2024-04-06T13:55:12.726Z,100558.80
2024-04-06T13:57:40.524Z,100560.40
2024-04-06T14:00:09.311Z,100564.20
2024-04-06T14:02:39.620Z,100568.00
2024-04-06T14:05:07.234Z,100565.60
2024-04-06T14:07:34.788Z,100565.00
2024-04-06T14:10:02.369Z,100567.40
2024-04-06T14:12:29.889Z,100560.00
2024-04-06T14:14:57.363Z,100565.00
2024-04-06T14:17:25.319Z,100570.20
2024-04-06T14:19:53.130Z,100576.20
2024-04-06T14:22:21.088Z,100573.20
2024-04-06T14:24:50.065Z,100572.80
2024-04-06T14:27:17.580Z,100568.20
2024-04-06T14:29:45.672Z,100565.40
2024-04-06T14:32:13.202Z,100572.60
2024-04-06T14:34:41.094Z,100565.20
2024-04-06T14:37:08.671Z,100556.00
2024-04-06T14:39:36.198Z,100557.40
2024-04-06T14:42:04.132Z,100555.60
2024-04-06T14:44:31.915Z,100552.40
2024-04-06T14:47:02.452Z,100557.60
2024-04-06T14:49:29.969Z,100557.20
2024-04-06T14:51:57.440Z,100562.20
2024-04-06T14:54:24.960Z,100565.60
2024-04-06T14:56:52.677Z,100567.20
2024-04-06T14:59:20.369Z,100569.20
2024-04-06T15:01:47.985Z,100565.60
2024-04-06T15:04:18.162Z,100564.80
2024-04-06T15:06:45.956Z,100571.00
2024-04-06T15:09:13.470Z,100569.60
2024-04-06T15:11:41.382Z,100575.60
2024-04-06T15:14:09.125Z,100577.60
2024-04-06T15:16:37.512Z,100579.40
2024-04-06T15:19:05.511Z,100578.40
2024-04-06T15:21:33.069Z,100578.00
2024-04-06T15:24:00.655Z,100576.80
2024-04-06T15:26:28.344Z,100579.20
2024-04-06T15:28:57.247Z,100578.80
2024-04-06T15:31:24.820Z,100577.60
2024-04-06T15:33:52.405Z,100577.60
2024-04-06T15:36:19.963Z,100577.20
2024-04-06T15:38:49.407Z,100577.80
2024-04-06T15:41:16.951Z,100574.00
2024-04-06T15:43:44.748Z,100568.00
2024-04-06T15:46:12.345Z,100573.40
2024-04-06T15:48:40.035Z,100571.80
2024-04-06T15:51:07.574Z,100571.40
2024-04-06T15:53:39.871Z,100569.20
2024-04-06T15:56:08.460Z,100569.40
2024-04-06T15:58:36.961Z,100573.20
2024-04-06T16:01:04.507Z,100578.00
2024-04-06T16:03:32.132Z,100574.40
2024-04-06T16:06:00.251Z,100578.00
2024-04-06T16:08:27.747Z,100581.40
2024-04-06T16:10:55.323Z,100580.00
2024-04-06T16:13:22.868Z,100576.00
2024-04-06T16:15:50.421Z,100574.60
2024-04-06T16:18:18.239Z,100578.80
2024-04-06T16:20:45.835Z,100571.40
2024-04-06T16:23:13.422Z,100568.20
2024-04-06T16:25:43.107Z,100566.40
2024-04-06T16:28:11.709Z,100557.20
2024-04-06T16:33:49.013Z,100562.00
2024-04-06T16:36:16.447Z,100567.00
2024-04-06T16:38:44.018Z,100571.00
2024-04-06T16:41:13.188Z,100573.80
2024-04-06T16:43:40.655Z,100579.80
2024-04-06T16:46:08.183Z,100586.00
2024-04-06T16:48:35.847Z,100594.80
2024-04-06T16:51:04.046Z,100590.00
2024-04-06T16:53:31.543Z,100591.40
2024-04-06T16:55:59.151Z,100594.80
2024-04-06T16:58:26.763Z,100601.40
2024-04-06T17:00:54.542Z,100601.60
2024-04-06T17:03:22.637Z,100607.20
2024-04-06T17:05:50.293Z,100610.00
2024-04-06T17:08:19.137Z,100609.00
2024-04-06T17:10:46.781Z,100615.60
2024-04-06T17:13:14.308Z,100620.20
2024-04-06T17:15:43.640Z,100619.80
2024-04-06T17:18:11.555Z,100619.60
2024-04-06T17:20:39.157Z,100624.40
2024-04-06T17:23:12.272Z,100625.60
2024-04-06T17:25:39.926Z,100626.20
2024-04-06T17:28:07.488Z,100630.80
2024-04-06T17:30:35.227Z,100633.40
2024-04-06T17:33:03.811Z,100640.80
2024-04-06T17:35:31.376Z,100642.00
2024-04-06T17:38:01.761Z,100650.80
2024-04-06T17:40:29.428Z,100654.20
2024-04-06T17:42:56.977Z,100653.80
2024-04-06T17:45:24.851Z,100655.40
2024-04-06T17:47:52.436Z,100665.60
2024-04-06T17:50:21.306Z,100667.20
2024-04-06T17:52:48.966Z,100669.60
2024-04-06T17:55:17.248Z,100676.80
2024-04-06T17:57:44.823Z,100680.60
2024-04-06T18:00:13.824Z,100679.80
2024-04-06T18:02:42.803Z,100684.80
2024-04-06T18:05:10.595Z,100688.40
2024-04-06T18:07:38.220Z,100690.60
2024-04-06T18:10:08.832Z,100692.40
2024-04-06T18:12:36.732Z,100692.80
2024-04-06T18:15:06.127Z,100699.80
2024-04-06T18:17:33.660Z,100701.40
2024-04-06T18:20:01.579Z,100701.60
2024-04-06T18:22:29.597Z,100705.60
2024-04-06T18:24:57.617Z,100708.60
2024-04-06T18:27:27.308Z,100708.80
2024-04-06T18:29:54.832Z,100712.20
2024-04-06T18:32:23.041Z,100714.80
2024-04-06T18:34:51.972Z,100713.40
2024-04-06T18:37:19.439Z,100713.80
2024-04-06T18:39:50.181Z,100715.20
2024-04-06T18:42:17.754Z,100725.00
2024-04-06T18:44:45.329Z,100717.40
2024-04-06T18:47:12.971Z,100716.20
2024-04-06T18:49:40.926Z,100717.40
2024-04-06T18:52:08.525Z,100715.20
2024-04-06T18:54:36.060Z,100711.00
2024-04-06T18:57:03.893Z,100708.20
2024-04-06T18:59:31.479Z,100706.60
2024-04-06T19:01:59.066Z,100705.40
2024-04-06T19:04:28.144Z,100707.20
2024-04-06T19:06:56.234Z,100711.40
2024-04-06T19:09:23.956Z,100710.80
2024-04-06T19:11:51.837Z,100712.60
2024-04-06T19:14:19.311Z,100711.00
2024-04-06T19:16:47.038Z,100704.80
2024-04-06T19:19:14.522Z,100701.60
2024-04-06T19:21:43.965Z,100705.20
2024-04-06T19:24:11.550Z,100709.60
2024-04-06T19:26:40.330Z,100708.60
2024-04-06T19:29:07.903Z,100708.60
2024-04-06T19:31:36.406Z,100718.40
2024-04-06T19:34:04.810Z,100718.20
2024-04-06T19:36:32.930Z,100718.60
2024-04-06T19:39:00.496Z,100723.20
2024-04-06T19:41:28.342Z,100720.60
2024-04-06T19:43:56.009Z,100718.00
2024-04-06T19:46:23.581Z,100724.80
2024-04-06T19:48:51.329Z,100725.20
2024-04-06T19:51:18.974Z,100726.80
2024-04-06T19:53:47.049Z,100725.20
2024-04-06T19:56:14.634Z,100724.60
2024-04-06T19:58:42.328Z,100729.20
2024-04-06T20:01:10.617Z,100732.80
2024-04-06T20:03:38.595Z,100742.40
2024-04-06T20:06:09.386Z,100742.60
2024-04-06T20:08:37.353Z,100738.60
2024-04-06T20:11:05.765Z,100739.20
2024-04-06T20:13:34.001Z,100734.00
2024-04-06T20:16:01.573Z,100740.80
2024-04-06T20:18:30.259Z,100739.40
2024-04-06T20:20:58.114Z,100743.60
2024-04-06T20:23:44.264Z,100747.20
2024-04-06T20:26:14.969Z,100748.60
2024-04-06T20:28:43.580Z,100748.60
2024-04-06T20:31:12.374Z,100752.00
2024-04-06T20:33:41.389Z,100745.20
2024-04-06T20:36:09.321Z,100741.00
2024-04-06T20:38:36.939Z,100743.40
2024-04-06T20:41:04.909Z,100749.40
2024-04-06T20:43:33.108Z,100749.60
2024-04-06T20:46:00.852Z,100754.40
2024-04-06T20:48:28.614Z,100761.20
2024-04-06T20:50:56.265Z,100761.60
2024-04-06T20:53:25.224Z,100762.80
2024-04-06T20:55:52.825Z,100765.20
2024-04-06T20:58:20.729Z,100760.80
2024-04-06T21:00:49.418Z,100754.20
2024-04-06T21:03:17.000Z,100760.20
2024-04-06T21:05:44.568Z,100764.80
2024-04-06T21:08:12.808Z,100764.60
2024-04-06T21:10:40.610Z,100762.60
2024-04-06T21:13:08.294Z,100758.60
2024-04-06T21:15:38.673Z,100759.80
2024-04-06T21:18:06.569Z,100756.40
2024-04-06T21:20:34.500Z,100755.60
2024-04-06T21:23:03.348Z,100754.40
2024-04-06T21:25:30.939Z,100758.00
2024-04-06T21:27:58.833Z,100759.60
2024-04-06T21:30:26.684Z,100761.60
2024-04-06T21:32:54.451Z,100767.40
2024-04-06T21:35:22.146Z,100772.00
2024-04-06T21:37:50.496Z,100775.00
2024-04-06T21:40:18.326Z,100779.80
2024-04-06T21:42:45.894Z,100779.60
2024-04-06T21:45:13.529Z,100779.40
2024-04-06T21:47:41.319Z,100778.20
2024-04-06T21:50:09.669Z,100764.80
2024-04-06T21:52:37.292Z,100762.00
2024-04-06T21:55:05.675Z,100761.40
2024-04-06T21:57:33.230Z,100759.60
2024-04-06T22:00:00.722Z,100759.80
2024-04-06T22:02:28.419Z,100751.40
2024-04-06T22:04:55.968Z,100762.00
2024-04-06T22:07:23.990Z,100763.80
2024-04-06T22:09:51.548Z,100769.80
2024-04-06T22:12:19.056Z,100772.20
2024-04-06T22:14:46.738Z,100776.80
2024-04-06T22:17:15.120Z,100782.00
2024-04-06T22:19:42.990Z,100784.20
2024-04-06T22:22:10.692Z,100787.60
2024-04-06T22:24:38.275Z,100792.40
2024-04-06T22:27:05.768Z,100791.40
2024-04-06T22:29:33.329Z,100790.80
2024-04-06T22:32:01.368Z,100791.80
2024-04-06T22:34:29.082Z,100793.00
2024-04-06T22:36:56.848Z,100789.60
2024-04-06T22:39:24.393Z,100796.80
2024-04-06T22:41:52.022Z,100799.00
2024-04-06T22:44:21.319Z,100795.80
2024-04-06T22:46:50.026Z,100797.60
2024-04-06T22:49:17.612Z,100798.00
2024-04-06T22:51:45.269Z,100804.00
2024-04-06T22:54:16.172Z,100796.00
2024-04-06T22:56:43.946Z,100796.80
2024-04-06T22:59:12.686Z,100799.60
2024-04-06T23:01:40.180Z,100806.00
2024-04-06T23:04:08.003Z,100809.80
2024-04-06T23:06:35.748Z,100806.80
2024-04-06T23:09:03.396Z,100812.40
2024-04-06T23:11:30.936Z,100809.00
2024-04-06T23:13:58.402Z,100807.40
2024-04-06T23:16:26.027Z,100807.20
2024-04-06T23:18:53.512Z,100810.60
2024-04-06T23:21:21.641Z,100816.20
2024-04-06T23:23:49.141Z,100815.20
2024-04-06T23:26:16.966Z,100811.00
2024-04-06T23:28:44.549Z,100815.60
2024-04-06T23:31:12.258Z,100819.20
2024-04-06T23:33:39.798Z,100814.20
2024-04-06T23:36:09.333Z,100814.40
2024-04-06T23:38:36.992Z,100815.00
2024-04-06T23:41:04.568Z,100814.40
2024-04-06T23:43:32.169Z,100820.00
2024-04-06T23:46:03.587Z,100823.00
2024-04-06T23:48:31.638Z,100823.80
2024-04-06T23:51:00.740Z,100823.00
2024-04-06T23:53:28.267Z,100824.60
2024-04-06T23:55:56.292Z,100822.00
2024-04-06T23:58:23.842Z,100820.60
